Ewtrford, Pennsylvania
Current Conditions -  °F | °C
As of 10:53 AM on Friday 28 Nov 2014 (Local Time) from KAOO Reporting Station
Broken Clouds Broken Clouds  
Wind Chill: 13°   Ceiling: 3400
Heat Index: 27°   Visibility: 10mi
Dew Point: 15°   Wind: 21mph
Humidity: 61%   Direction: 280°W
Pressure: 30.25"   Gusts: NA
Location:  40.3617°N, 77.6745°W
Report Text: KAOO 281553Z AUTO 28018KT 10SM BKN034 M03/M09 A3025 RMK AO2 SLP262 T10281094
Loading
Personal Weather Stations






























Interactive Weather Map New forecast layout! Learn more

10-Day Weather Forecast

Advertisements
Track Severe Weather on mobile